Time;durP1;ratioP1;P1;durP2;ratioP2;P2;SDS_P1;SDS_P2;PMS_P1;PMS_P2;Temp;Humidity;BMP_temperature;BMP_pressure;BME280_temperature;BME280_humidity;BME280_pressure;Samples;Min_cycle;Max_cycle;Signal;HPM_P1;HPM_P2
2022/06/05 00:01:17;;;;;;;0.40;0.40;;;16.20;92.60;;;;;;4410599;32;20069;-69
2022/06/05 00:04:08;;;;;;;0.30;0.30;;;16.20;92.90;;;;;;4433799;32;20065;-69
2022/06/05 00:06:42;;;;;;;0.37;0.37;;;15.90;93.20;;;;;;4430256;32;20433;-69
2022/06/05 00:09:18;;;;;;;1.25;0.65;;;16.00;93.30;;;;;;4431278;32;20097;-69
2022/06/05 00:11:48;;;;;;;0.60;0.50;;;15.90;93.40;;;;;;4429519;32;20097;-69
2022/06/05 00:14:14;;;;;;;0.40;0.40;;;15.90;93.70;;;;;;4430530;32;20100;-69
2022/06/05 00:16:41;;;;;;;1.27;0.80;;;15.90;93.60;;;;;;4431375;32;20557;-69
2022/06/05 00:19:06;;;;;;;2.95;0.60;;;15.90;93.90;;;;;;4431188;32;20065;-68
2022/06/05 00:21:32;;;;;;;0.43;0.43;;;15.90;94.10;;;;;;4429858;32;21041;-68
2022/06/05 00:23:57;;;;;;;0.30;0.30;;;15.90;94.20;;;;;;4431094;32;20076;-68
2022/06/05 00:26:27;;;;;;;0.70;0.40;;;15.90;94.30;;;;;;4436412;32;20111;-68
2022/06/05 00:29:19;;;;;;;0.30;0.30;;;15.90;94.40;;;;;;4422779;32;20069;-68
2022/06/05 00:32:06;;;;;;;0.30;0.30;;;15.90;94.60;;;;;;4424300;32;20073;-68
2022/06/05 00:34:32;;;;;;;0.90;0.82;;;15.80;94.80;;;;;;4437940;32;20098;-68
2022/06/05 00:37:11;;;;;;;0.40;0.40;;;15.60;95.30;;;;;;4445181;32;20053;-69
2022/06/05 00:39:52;;;;;;;0.40;0.40;;;15.50;95.90;;;;;;4444357;32;20069;-68
2022/06/05 00:42:21;;;;;;;0.75;0.70;;;15.40;95.60;;;;;;4441298;32;20086;-69
2022/06/05 00:44:50;;;;;;;0.35;0.35;;;15.40;95.90;;;;;;4440972;32;20090;-69
2022/06/05 00:47:19;;;;;;;0.62;0.57;;;15.30;96.20;;;;;;4430328;32;20148;-68
2022/06/05 00:49:51;;;;;;;0.50;0.50;;;15.30;96.50;;;;;;4429720;32;20411;-69
2022/06/05 00:52:22;;;;;;;3.12;0.35;;;15.30;96.70;;;;;;4430562;32;20057;-69
2022/06/05 00:54:47;;;;;;;0.35;0.35;;;15.30;96.90;;;;;;4428769;32;20093;-69
2022/06/05 00:57:13;;;;;;;0.22;0.22;;;15.30;96.90;;;;;;4427280;32;20078;-69
2022/06/05 00:59:42;;;;;;;0.30;0.30;;;15.30;97.20;;;;;;4411575;32;20077;-69
2022/06/05 01:02:09;;;;;;;0.85;0.75;;;15.30;97.20;;;;;;4420360;32;20114;-69
2022/06/05 01:04:37;;;;;;;0.50;0.50;;;15.10;97.60;;;;;;4432605;32;20128;-69
2022/06/05 01:07:03;;;;;;;0.20;0.20;;;15.10;97.90;;;;;;4436629;32;20085;-69
2022/06/05 01:09:28;;;;;;;0.40;0.40;;;15.10;98.00;;;;;;4430318;32;20076;-69
2022/06/05 01:12:13;;;;;;;0.40;0.40;;;15.10;98.30;;;;;;4441081;32;20057;-69
2022/06/05 01:15:06;;;;;;;0.22;0.22;;;15.20;98.20;;;;;;4443714;32;20101;-69
2022/06/05 01:17:42;;;;;;;0.37;0.35;;;15.00;98.70;;;;;;4435530;32;20069;-69
2022/06/05 01:20:35;;;;;;;0.75;0.50;;;14.90;99.20;;;;;;4443852;32;20080;-69
2022/06/05 01:23:15;;;;;;;0.40;0.40;;;14.80;99.60;;;;;;4431489;32;20726;-69
2022/06/05 01:25:49;;;;;;;0.65;0.50;;;14.90;99.80;;;;;;4427992;32;20132;-69
2022/06/05 01:28:18;;;;;;;1.17;0.57;;;14.90;99.90;;;;;;4420555;32;20093;-69
2022/06/05 01:30:54;;;;;;;0.45;0.45;;;14.80;99.90;;;;;;4402982;32;115139;-69
2022/06/05 01:33:23;;;;;;;0.40;0.40;;;14.70;99.90;;;;;;4430009;32;20411;-69
2022/06/05 01:36:13;;;;;;;2.40;1.08;;;14.60;99.90;;;;;;4437848;32;20049;-69
2022/06/05 01:38:52;;;;;;;0.37;0.37;;;14.50;99.90;;;;;;4437295;32;20065;-69
2022/06/05 01:41:25;;;;;;;0.47;0.47;;;14.50;99.90;;;;;;4440214;32;20057;-69
2022/06/05 01:43:55;;;;;;;0.43;0.40;;;14.50;99.90;;;;;;4438345;32;20130;-69
2022/06/05 01:46:33;;;;;;;0.47;0.47;;;14.50;99.90;;;;;;4438804;32;20073;-69
2022/06/05 01:49:22;;;;;;;0.35;0.35;;;14.50;99.90;;;;;;4437729;32;20098;-69
2022/06/05 01:52:09;;;;;;;1.25;0.52;;;14.60;99.90;;;;;;4440778;32;20653;-69
2022/06/05 01:54:46;;;;;;;0.50;0.50;;;14.50;99.90;;;;;;4432844;32;20056;-69
2022/06/05 01:57:14;;;;;;;0.55;0.55;;;14.50;99.90;;;;;;4425800;32;20090;-69
2022/06/05 01:59:46;;;;;;;0.60;0.60;;;14.40;99.90;;;;;;4409017;32;20066;-69
2022/06/05 02:02:20;;;;;;;0.45;0.45;;;14.40;99.90;;;;;;4422449;32;20527;-69
2022/06/05 02:04:52;;;;;;;0.52;0.43;;;14.40;99.90;;;;;;4427660;32;20092;-69
2022/06/05 02:07:28;;;;;;;0.50;0.50;;;14.40;99.90;;;;;;4430374;32;20140;-69
2022/06/05 02:10:18;;;;;;;0.32;0.32;;;14.40;99.90;;;;;;4439431;32;20431;-69
2022/06/05 02:12:44;;;;;;;3.37;0.60;;;14.40;99.90;;;;;;4436484;32;20058;-69
2022/06/05 02:15:10;;;;;;;1.02;0.75;;;14.40;99.90;;;;;;4437698;32;20088;-69
2022/06/05 02:17:37;;;;;;;0.47;0.47;;;14.40;99.90;;;;;;4436179;32;20123;-69
2022/06/05 02:20:05;;;;;;;0.75;0.52;;;14.40;99.90;;;;;;4437127;32;20123;-70
2022/06/05 02:22:37;;;;;;;1.45;0.35;;;14.30;99.90;;;;;;4435698;32;20073;-70
2022/06/05 02:25:04;;;;;;;0.22;0.22;;;14.20;99.90;;;;;;4443131;32;20072;-70
2022/06/05 02:27:30;;;;;;;0.90;0.47;;;14.20;99.90;;;;;;4436734;32;20572;-70
2022/06/05 02:29:57;;;;;;;2.85;0.73;;;14.20;99.90;;;;;;4416864;32;20065;-70
2022/06/05 02:32:40;;;;;;;0.62;0.50;;;14.10;99.90;;;;;;4428306;32;20050;-69
2022/06/05 02:35:20;;;;;;;0.37;0.37;;;14.20;99.90;;;;;;4439151;32;20066;-70
2022/06/05 02:37:58;;;;;;;0.60;0.57;;;14.20;99.90;;;;;;4443064;32;20077;-70
2022/06/05 02:40:48;;;;;;;3.05;0.70;;;14.20;99.90;;;;;;4440472;32;20057;-69
2022/06/05 02:43:23;;;;;;;0.47;0.47;;;14.20;99.90;;;;;;4437155;32;20137;-70
2022/06/05 02:46:04;;;;;;;0.30;0.30;;;14.00;99.90;;;;;;4438570;32;20158;-69
2022/06/05 02:48:32;;;;;;;;;;;14.00;99.90;;;;;;4437881;32;20081;-69
2022/06/05 02:51:13;;;;;;;0.82;0.50;;;13.90;99.90;;;;;;4433972;32;20057;-70
2022/06/05 02:53:58;;;;;;;0.47;0.47;;;13.90;99.90;;;;;;4441179;32;20053;-69
2022/06/05 02:56:26;;;;;;;1.75;0.68;;;13.90;99.90;;;;;;4439392;32;20049;-69
2022/06/05 02:58:53;;;;;;;0.95;0.82;;;13.90;99.90;;;;;;4417581;32;20064;-70
2022/06/05 03:03:33;;;;;;;2.72;1.05;;;13.90;99.90;;;;;;4415839;32;20058;-69
2022/06/05 03:04:07;;;;;;;0.70;0.37;;;13.90;99.90;;;;;;4427842;32;20088;-70
2022/06/05 03:06:33;;;;;;;12.13;0.60;;;13.90;99.90;;;;;;4431726;32;20061;-70
2022/06/05 03:08:59;;;;;;;0.60;0.60;;;13.90;99.90;;;;;;4432887;32;20077;-70
2022/06/05 03:11:25;;;;;;;7.30;0.80;;;13.80;99.90;;;;;;4432439;32;20314;-69
2022/06/05 03:13:50;;;;;;;0.50;0.50;;;13.80;99.90;;;;;;4431694;32;20123;-70
2022/06/05 03:16:16;;;;;;;0.40;0.40;;;13.90;99.90;;;;;;4427615;32;20070;-69
2022/06/05 03:18:41;;;;;;;0.43;0.43;;;13.90;99.90;;;;;;4440001;32;20077;-69
2022/06/05 03:21:07;;;;;;;0.50;0.50;;;13.80;99.90;;;;;;4438658;32;20118;-69
2022/06/05 03:23:32;;;;;;;0.40;0.40;;;13.80;99.90;;;;;;4435022;32;20588;-69
2022/06/05 03:25:59;;;;;;;0.70;0.70;;;13.70;99.90;;;;;;4433613;32;20113;-69
2022/06/05 03:28:24;;;;;;;0.50;0.50;;;13.70;99.90;;;;;;4419703;32;20105;-70
2022/06/05 03:30:50;;;;;;;0.43;0.43;;;13.80;99.90;;;;;;4411995;32;20774;-69
2022/06/05 03:33:17;;;;;;;0.73;0.60;;;13.70;99.90;;;;;;4439999;32;20140;-69
2022/06/05 03:35:44;;;;;;;0.85;0.65;;;13.80;99.90;;;;;;4442358;32;20065;-69
2022/06/05 03:38:11;;;;;;;2.83;0.95;;;13.80;99.90;;;;;;4437374;32;20072;-69
2022/06/05 03:40:42;;;;;;;1.08;0.98;;;13.90;99.90;;;;;;4446701;32;20123;-69
2022/06/05 03:43:08;;;;;;;0.50;0.50;;;13.90;99.90;;;;;;4440914;32;20073;-69
2022/06/05 03:45:33;;;;;;;0.43;0.43;;;13.80;99.90;;;;;;4439905;32;20081;-69
2022/06/05 03:47:59;;;;;;;0.30;0.30;;;13.80;99.90;;;;;;4437204;32;20514;-69
2022/06/05 03:50:24;;;;;;;1.00;0.90;;;13.90;99.90;;;;;;4442124;32;20061;-70
2022/06/05 03:52:50;;;;;;;0.52;0.52;;;13.80;99.90;;;;;;4438058;32;20173;-69
2022/06/05 03:55:18;;;;;;;0.50;0.50;;;13.90;99.90;;;;;;4440167;32;20058;-69
2022/06/05 03:57:44;;;;;;;0.43;0.30;;;13.90;99.90;;;;;;4438026;32;20504;-69
2022/06/05 04:00:10;;;;;;;0.45;0.45;;;13.90;99.90;;;;;;4410771;32;20633;-70
2022/06/05 04:02:36;;;;;;;0.82;0.50;;;14.00;99.90;;;;;;4424439;32;20120;-69
2022/06/05 04:05:04;;;;;;;0.30;0.30;;;14.00;99.90;;;;;;4430777;32;20431;-69
2022/06/05 04:07:30;;;;;;;0.98;0.70;;;14.00;99.90;;;;;;4429925;32;20116;-70
2022/06/05 04:09:55;;;;;;;0.62;0.62;;;14.00;99.90;;;;;;4435405;32;20406;-70
2022/06/05 04:12:21;;;;;;;0.40;0.40;;;14.10;99.90;;;;;;4436930;32;20072;-69
2022/06/05 04:14:46;;;;;;;0.30;0.30;;;14.10;99.90;;;;;;4441265;32;20065;-69
2022/06/05 04:17:12;;;;;;;1.05;0.90;;;14.10;99.90;;;;;;4441643;32;20073;-70
2022/06/05 04:19:37;;;;;;;0.85;0.40;;;14.20;99.90;;;;;;4445049;32;20073;-69
2022/06/05 04:22:04;;;;;;;0.65;0.50;;;14.20;99.90;;;;;;4437412;32;20468;-69
2022/06/05 04:24:30;;;;;;;0.40;0.40;;;14.20;99.90;;;;;;4440449;32;20533;-69
2022/06/05 04:26:56;;;;;;;0.68;0.68;;;14.40;99.90;;;;;;4442925;32;20073;-70
2022/06/05 04:29:22;;;;;;;0.95;0.70;;;14.40;99.90;;;;;;4417127;32;20061;-70
2022/06/05 04:31:49;;;;;;;0.47;0.43;;;14.50;99.90;;;;;;4430196;32;20085;-70
2022/06/05 04:34:17;;;;;;;0.80;0.65;;;14.40;99.90;;;;;;4428350;32;20402;-70
2022/06/05 04:36:43;;;;;;;0.68;0.68;;;14.40;99.90;;;;;;4430286;32;20479;-69
2022/06/05 04:39:10;;;;;;;3.08;0.43;;;14.40;99.90;;;;;;4428964;32;20073;-70
2022/06/05 04:41:36;;;;;;;0.35;0.35;;;14.50;99.90;;;;;;4429889;32;20066;-70
2022/06/05 04:44:03;;;;;;;0.50;0.50;;;14.50;99.90;;;;;;4430889;32;20400;-70
2022/06/05 04:46:29;;;;;;;0.45;0.45;;;14.40;99.90;;;;;;4436708;32;20064;-69
2022/06/05 04:48:55;;;;;;;0.43;0.43;;;14.50;99.90;;;;;;4441886;32;20069;-69
2022/06/05 04:51:22;;;;;;;15.40;0.70;;;14.50;99.90;;;;;;4438260;32;20465;-70
2022/06/05 04:53:49;;;;;;;0.30;0.30;;;14.50;99.90;;;;;;4438007;32;20054;-70
2022/06/05 04:56:18;;;;;;;1.08;0.77;;;14.50;99.90;;;;;;4440397;32;20601;-70
2022/06/05 04:58:44;;;;;;;0.40;0.40;;;14.50;99.90;;;;;;4427089;32;20069;-70
2022/06/05 05:01:13;;;;;;;0.30;0.30;;;14.60;99.90;;;;;;4417707;32;20129;-70
2022/06/05 05:03:39;;;;;;;1.05;0.62;;;14.70;99.90;;;;;;4430859;32;20078;-70
2022/06/05 05:06:04;;;;;;;3.97;0.50;;;14.70;99.90;;;;;;4431210;32;20076;-70
2022/06/05 05:08:30;;;;;;;0.65;0.40;;;14.80;99.90;;;;;;4430819;32;20084;-69
2022/06/05 05:10:55;;;;;;;11.80;0.40;;;14.90;99.90;;;;;;4430089;32;20134;-70
2022/06/05 05:13:21;;;;;;;0.52;0.52;;;14.90;99.90;;;;;;4431241;32;20387;-69
2022/06/05 05:15:50;;;;;;;2.95;0.70;;;15.00;99.90;;;;;;4431195;32;20088;-70
2022/06/05 05:18:15;;;;;;;0.43;0.37;;;15.00;99.90;;;;;;4428101;32;20077;-70
2022/06/05 05:20:41;;;;;;;0.40;0.40;;;15.10;99.90;;;;;;4430954;32;20092;-69
2022/06/05 05:23:07;;;;;;;0.62;0.60;;;15.10;99.90;;;;;;4432563;32;20061;-69
2022/06/05 05:25:33;;;;;;;0.85;0.60;;;15.20;99.90;;;;;;4429867;32;20487;-69
2022/06/05 05:27:58;;;;;;;0.40;0.40;;;15.20;99.90;;;;;;4420228;32;20065;-69
2022/06/05 05:30:24;;;;;;;0.90;0.82;;;15.30;99.90;;;;;;4407009;32;20160;-69
2022/06/05 05:32:49;;;;;;;0.40;0.40;;;15.30;99.90;;;;;;4428439;32;20652;-69
2022/06/05 05:35:15;;;;;;;0.30;0.30;;;15.40;99.90;;;;;;4436031;32;20093;-69
2022/06/05 05:37:40;;;;;;;0.50;0.50;;;15.40;99.90;;;;;;4447261;32;20072;-69
2022/06/05 05:42:08;;;;;;;0.30;0.30;;;15.50;99.90;;;;;;4440365;32;20077;-69
2022/06/05 05:42:52;;;;;;;0.82;0.60;;;15.50;99.90;;;;;;4436389;32;20108;-69
2022/06/05 05:45:18;;;;;;;0.40;0.40;;;15.60;99.90;;;;;;4441395;32;20066;-69
2022/06/05 05:47:43;;;;;;;0.60;0.60;;;15.70;99.90;;;;;;4430667;32;20082;-69
2022/06/05 05:50:12;;;;;;;3.17;0.90;;;15.70;99.90;;;;;;4441780;32;20528;-69
2022/06/05 05:52:38;;;;;;;0.57;0.57;;;15.80;99.90;;;;;;4436786;32;20529;-69
2022/06/05 05:55:05;;;;;;;0.30;0.30;;;15.80;99.90;;;;;;4439396;32;20152;-69
2022/06/05 05:57:30;;;;;;;1.23;0.43;;;15.90;99.90;;;;;;4439641;32;20089;-69
2022/06/05 05:59:56;;;;;;;3.60;0.65;;;16.00;99.90;;;;;;4417956;32;20524;-69
2022/06/05 06:02:26;;;;;;;0.70;0.30;;;16.00;99.90;;;;;;4430261;32;20075;-69
2022/06/05 06:04:52;;;;;;;1.00;0.50;;;16.10;99.90;;;;;;4431892;32;20101;-69
2022/06/05 06:07:19;;;;;;;0.50;0.50;;;16.20;99.90;;;;;;4432410;32;20098;-69
2022/06/05 06:09:45;;;;;;;0.68;0.40;;;16.30;99.90;;;;;;4427337;32;20459;-69
2022/06/05 06:12:12;;;;;;;0.30;0.30;;;16.40;99.90;;;;;;4437886;32;20104;-69
2022/06/05 06:14:37;;;;;;;0.30;0.30;;;16.50;99.90;;;;;;4440152;32;20069;-69
2022/06/05 06:17:03;;;;;;;0.75;0.70;;;16.60;99.90;;;;;;4438423;32;20052;-69
2022/06/05 06:19:29;;;;;;;0.52;0.52;;;16.60;99.90;;;;;;4438176;32;20176;-69
2022/06/05 06:21:55;;;;;;;0.47;0.47;;;16.60;99.90;;;;;;4442822;32;20078;-69
2022/06/05 06:24:20;;;;;;;0.43;0.40;;;16.70;99.90;;;;;;4442638;32;20065;-69
2022/06/05 06:26:45;;;;;;;0.28;0.28;;;16.80;99.90;;;;;;4430303;32;20076;-69
2022/06/05 06:29:11;;;;;;;1.55;0.50;;;16.90;99.90;;;;;;4410709;32;20081;-69
2022/06/05 06:31:38;;;;;;;0.40;0.40;;;17.00;99.90;;;;;;4414335;32;21354;-69
2022/06/05 06:34:04;;;;;;;0.30;0.30;;;17.10;99.90;;;;;;4428865;32;20492;-69
2022/06/05 06:36:32;;;;;;;0.77;0.60;;;17.20;99.90;;;;;;4429633;32;20116;-69
2022/06/05 06:38:58;;;;;;;0.50;0.50;;;17.20;99.90;;;;;;4431406;32;20524;-69
2022/06/05 06:41:23;;;;;;;0.50;0.50;;;17.20;99.90;;;;;;4430027;32;20128;-69
2022/06/05 06:43:49;;;;;;;3.10;0.45;;;17.20;99.90;;;;;;4439192;32;20178;-69
2022/06/05 06:46:16;;;;;;;1.02;0.80;;;17.30;99.90;;;;;;4438236;32;20065;-69
2022/06/05 06:48:42;;;;;;;0.40;0.40;;;17.40;99.90;;;;;;4431257;32;20069;-69
2022/06/05 06:51:09;;;;;;;0.60;0.60;;;17.50;99.90;;;;;;4428682;32;20533;-69
2022/06/05 06:53:36;;;;;;;0.50;0.50;;;17.70;99.90;;;;;;4429807;32;20647;-69
2022/06/05 06:56:21;;;;;;;0.35;0.35;;;17.70;99.90;;;;;;4427365;32;20105;-69
2022/06/05 06:58:47;;;;;;;0.43;0.35;;;17.80;99.90;;;;;;4412397;32;20061;-69
2022/06/05 07:01:13;;;;;;;0.43;0.43;;;17.90;99.90;;;;;;4410361;32;20211;-68
2022/06/05 07:03:39;;;;;;;0.40;0.40;;;17.90;99.90;;;;;;4429344;32;20092;-69
2022/06/05 07:06:09;;;;;;;0.50;0.50;;;18.00;99.90;;;;;;4437236;32;20064;-69
2022/06/05 07:08:35;;;;;;;0.30;0.30;;;18.20;99.90;;;;;;4436990;32;20634;-69
2022/06/05 07:11:03;;;;;;;0.47;0.47;;;18.30;99.90;;;;;;4436587;32;20084;-68
2022/06/05 07:13:29;;;;;;;0.45;0.45;;;18.40;99.90;;;;;;4436222;32;20061;-69
2022/06/05 07:15:54;;;;;;;0.30;0.30;;;18.60;99.90;;;;;;4437634;32;20065;-69
2022/06/05 07:18:20;;;;;;;0.40;0.40;;;18.70;99.90;;;;;;4434263;32;20140;-69
2022/06/05 07:20:46;;;;;;;0.93;0.93;;;18.80;99.90;;;;;;4436215;32;20124;-69
2022/06/05 07:23:12;;;;;;;0.37;0.37;;;18.90;99.90;;;;;;4430181;32;21912;-69
2022/06/05 07:25:47;;;;;;;0.43;0.40;;;19.00;99.90;;;;;;4425407;32;20430;-69
2022/06/05 07:28:12;;;;;;;0.40;0.40;;;19.30;99.90;;;;;;4419227;32;20324;-69
2022/06/05 07:30:38;;;;;;;0.25;0.25;;;19.40;99.90;;;;;;4408821;32;20147;-69
2022/06/05 07:33:03;;;;;;;1.35;0.95;;;19.50;99.90;;;;;;4427013;32;20077;-69
2022/06/05 07:35:29;;;;;;;0.95;0.50;;;19.80;99.90;;;;;;4427011;32;20149;-69
2022/06/05 07:37:54;;;;;;;0.30;0.30;;;19.90;99.90;;;;;;4427505;32;20082;-68
2022/06/05 07:40:20;;;;;;;0.80;0.77;;;20.10;99.90;;;;;;4430247;32;20174;-68
2022/06/05 07:42:45;;;;;;;0.50;0.50;;;20.30;99.90;;;;;;4435130;32;20073;-68
2022/06/05 07:45:14;;;;;;;0.43;0.43;;;20.40;99.60;;;;;;4432873;32;20090;-68
2022/06/05 07:47:41;;;;;;;1.25;0.43;;;20.50;99.20;;;;;;4429651;32;20070;-68
2022/06/05 07:50:07;;;;;;;0.50;0.50;;;20.50;99.20;;;;;;4429363;32;20080;-68
2022/06/05 07:54:36;;;;;;;0.52;0.52;;;20.70;98.60;;;;;;4430701;32;20579;-69
2022/06/05 07:55:18;;;;;;;0.75;0.50;;;20.80;98.60;;;;;;4427622;32;20556;-68
2022/06/05 07:57:43;;;;;;;0.35;0.35;;;21.00;97.60;;;;;;4429024;32;20311;-68
2022/06/05 08:00:11;;;;;;;0.43;0.40;;;21.10;97.90;;;;;;4429322;32;20543;-68
2022/06/05 08:02:38;;;;;;;0.30;0.30;;;21.20;97.30;;;;;;4434900;32;20406;-68
2022/06/05 08:05:04;;;;;;;0.47;0.47;;;21.30;96.70;;;;;;4438148;32;20451;-68
2022/06/05 08:07:31;;;;;;;1.23;0.70;;;21.40;97.20;;;;;;4440465;32;20167;-68
2022/06/05 08:09:58;;;;;;;0.30;0.30;;;21.50;97.50;;;;;;4436325;32;20068;-68
2022/06/05 08:12:27;;;;;;;1.55;0.70;;;21.70;95.60;;;;;;4442247;32;20422;-68
2022/06/05 08:14:54;;;;;;;0.70;0.55;;;21.80;95.80;;;;;;4447077;32;20082;-68
2022/06/05 08:17:23;;;;;;;0.75;0.60;;;21.90;95.80;;;;;;4439399;32;20077;-68
2022/06/05 08:19:49;;;;;;;0.50;0.50;;;22.10;95.10;;;;;;4437765;32;20117;-68
2022/06/05 08:22:17;;;;;;;0.28;0.28;;;22.00;94.50;;;;;;4440598;32;20073;-68
2022/06/05 08:24:43;;;;;;;0.50;0.50;;;22.00;94.60;;;;;;4442224;32;20074;-68
2022/06/05 08:27:11;;;;;;;0.20;0.20;;;22.10;94.60;;;;;;4442108;32;20737;-68
2022/06/05 08:29:38;;;;;;;0.40;0.40;;;22.20;94.40;;;;;;4421701;32;20084;-68
2022/06/05 08:32:04;;;;;;;0.35;0.35;;;22.30;93.80;;;;;;4429500;32;20073;-69
2022/06/05 08:34:30;;;;;;;0.30;0.30;;;22.40;92.80;;;;;;4441811;32;20521;-68
2022/06/05 08:41:42;;;;;;;0.55;0.55;;;22.60;92.20;;;;;;4439666;32;20435;-68
2022/06/05 08:42:41;;;;;;;0.30;0.30;;;22.80;92.20;;;;;;4439417;32;20077;-69
2022/06/05 08:45:16;;;;;;;0.30;0.30;;;22.90;91.70;;;;;;4441975;32;20073;-69
2022/06/05 08:47:51;;;;;;;0.47;0.43;;;22.90;89.00;;;;;;4441170;32;20077;-69
2022/06/05 08:50:44;;;;;;;0.20;0.20;;;22.90;86.50;;;;;;4437151;32;20065;-69
2022/06/05 08:53:20;;;;;;;0.37;0.30;;;23.00;83.10;;;;;;4436309;32;20089;-69
2022/06/05 08:55:47;;;;;;;1.37;0.70;;;23.20;87.00;;;;;;4433545;32;20085;-69
2022/06/05 08:58:23;;;;;;;2.85;0.55;;;23.30;88.20;;;;;;4419466;32;20077;-69
2022/06/05 09:00:52;;;;;;;0.52;0.30;;;23.30;87.10;;;;;;4412382;32;20537;-69
2022/06/05 09:03:24;;;;;;;0.25;0.25;;;23.40;86.80;;;;;;4438162;32;20072;-69
2022/06/05 09:05:56;;;;;;;0.90;0.47;;;23.40;84.20;;;;;;4440392;32;20077;-69
2022/06/05 09:08:27;;;;;;;0.10;0.10;;;23.50;84.20;;;;;;4441482;32;20117;-69
2022/06/05 09:10:58;;;;;;;5.55;0.37;;;23.40;84.40;;;;;;4440122;32;20085;-69
2022/06/05 09:13:30;;;;;;;0.47;0.47;;;23.50;84.70;;;;;;4438838;32;20053;-69
2022/06/05 09:15:59;;;;;;;5.55;0.85;;;23.50;86.10;;;;;;4439813;32;20065;-69
2022/06/05 09:18:29;;;;;;;0.22;0.22;;;23.70;83.30;;;;;;4442358;32;20180;-69
2022/06/05 09:20:57;;;;;;;2.28;0.75;;;23.80;83.60;;;;;;4433521;32;20181;-69
2022/06/05 09:23:50;;;;;;;0.47;0.47;;;23.90;84.50;;;;;;4441622;32;20104;-69
2022/06/05 09:26:22;;;;;;;0.30;0.30;;;24.10;83.90;;;;;;4437340;32;20081;-69
2022/06/05 09:29:08;;;;;;;0.30;0.30;;;24.20;82.30;;;;;;4428150;32;20385;-69
2022/06/05 09:31:43;;;;;;;0.30;0.30;;;24.30;82.70;;;;;;4422659;32;20568;-68
2022/06/05 09:34:12;;;;;;;0.30;0.30;;;24.30;81.70;;;;;;4444820;32;20512;-68
2022/06/05 09:36:40;;;;;;;0.37;0.37;;;24.40;82.80;;;;;;4441742;32;20089;-69
2022/06/05 09:39:25;;;;;;;0.20;0.20;;;24.50;83.40;;;;;;4439751;32;20418;-69
2022/06/05 09:42:10;;;;;;;0.35;0.20;;;24.40;80.10;;;;;;4438668;32;20089;-69
2022/06/05 09:44:51;;;;;;;3.30;1.45;;;24.40;80.60;;;;;;4436929;32;20101;-69
2022/06/05 09:47:28;;;;;;;0.10;0.10;;;24.60;80.50;;;;;;4435558;32;20069;-68
2022/06/05 09:49:59;;;;;;;0.15;0.15;;;24.70;78.90;;;;;;4439448;32;20213;-69
2022/06/05 09:52:28;;;;;;;0.20;0.20;;;24.70;79.80;;;;;;4440203;32;20093;-69
2022/06/05 09:55:08;;;;;;;0.57;0.37;;;24.90;82.30;;;;;;4433513;32;20082;-68
2022/06/05 09:58:34;;;;;;;0.28;0.28;;;25.20;79.40;;;;;;4432199;32;20711;-69
2022/06/05 10:00:53;;;;;;;0.20;0.20;;;25.30;79.60;;;;;;4413503;32;20136;-69
2022/06/05 10:03:22;;;;;;;0.30;0.30;;;25.20;78.60;;;;;;4439174;32;20077;-69
2022/06/05 10:06:17;;;;;;;0.50;0.50;;;25.40;79.10;;;;;;4436227;32;20548;-68
2022/06/05 10:08:46;;;;;;;0.68;0.35;;;25.50;80.80;;;;;;4437124;32;20120;-69
2022/06/05 10:11:25;;;;;;;0.20;0.20;;;25.70;80.60;;;;;;4442823;32;20135;-69
2022/06/05 10:14:01;;;;;;;0.50;0.40;;;25.80;80.00;;;;;;4438688;32;20069;-69
2022/06/05 10:16:51;;;;;;;0.30;0.30;;;25.80;79.10;;;;;;4434098;32;20153;-69
2022/06/05 10:19:45;;;;;;;0.20;0.20;;;25.80;79.30;;;;;;4434827;32;20069;-69
2022/06/05 10:22:20;;;;;;;0.22;0.20;;;26.20;80.20;;;;;;4435417;32;20093;-69
2022/06/05 10:25:05;;;;;;;0.25;0.25;;;26.40;78.40;;;;;;4431971;32;20074;-69
2022/06/05 10:27:32;;;;;;;0.28;0.28;;;26.50;79.70;;;;;;4424308;32;20568;-69
2022/06/05 10:30:01;;;;;;;0.45;0.32;;;26.50;81.40;;;;;;4410556;32;20092;-69
2022/06/05 10:32:42;;;;;;;0.60;0.50;;;26.50;80.00;;;;;;4422326;32;20229;-69
2022/06/05 10:35:16;;;;;;;0.45;0.45;;;26.70;80.50;;;;;;4430184;32;20150;-70
2022/06/05 10:38:16;;;;;;;0.20;0.20;;;26.80;80.40;;;;;;4428098;32;20215;-69
2022/06/05 10:40:48;;;;;;;0.20;0.20;;;26.80;80.50;;;;;;4431720;32;20077;-69
2022/06/05 10:43:24;;;;;;;0.20;0.20;;;26.90;80.50;;;;;;4438144;32;20084;-69
2022/06/05 10:46:00;;;;;;;5.57;1.37;;;27.20;79.90;;;;;;4438450;32;20533;-69
2022/06/05 10:48:47;;;;;;;0.28;0.28;;;27.30;79.80;;;;;;4439362;32;20132;-68
2022/06/05 10:51:35;;;;;;;0.30;0.30;;;27.30;79.60;;;;;;4438912;32;20517;-70
2022/06/05 10:54:27;;;;;;;0.40;0.40;;;27.50;79.70;;;;;;4438382;32;20128;-70
2022/06/05 10:57:24;;;;;;;0.60;0.40;;;27.60;78.30;;;;;;4442332;32;20061;-70
2022/06/05 11:00:05;;;;;;;0.20;0.20;;;27.60;78.90;;;;;;4419744;32;20057;-70
2022/06/05 11:02:40;;;;;;;0.30;0.30;;;27.70;79.20;;;;;;4433449;32;20073;-70
2022/06/05 11:05:26;;;;;;;1.75;0.30;;;27.90;80.30;;;;;;4444807;32;20189;-69
2022/06/05 11:08:31;;;;;;;2.28;1.35;;;28.60;77.90;;;;;;4434947;32;20426;-69
2022/06/05 11:13:51;;;;;;;0.17;0.17;;;28.70;76.90;;;;;;4430777;32;20077;-69
2022/06/05 11:14:17;;;;;;;0.35;0.35;;;28.80;76.60;;;;;;4433172;32;20603;-69
2022/06/05 11:17:19;;;;;;;0.20;0.20;;;28.80;76.30;;;;;;4440707;32;20126;-70
2022/06/05 11:19:58;;;;;;;0.20;0.20;;;29.00;75.30;;;;;;4437961;32;20095;-69
2022/06/05 11:22:26;;;;;;;0.22;0.22;;;29.00;75.50;;;;;;4438815;32;20081;-69
2022/06/05 11:24:57;;;;;;;2.72;0.43;;;29.50;74.80;;;;;;4431119;32;20065;-69
2022/06/05 11:27:33;;;;;;;;;;;29.70;73.70;;;;;;4430706;32;20112;-69
2022/06/05 11:30:19;;;;;;;0.20;0.20;;;29.80;74.00;;;;;;4412624;32;19984;-69
2022/06/05 11:33:14;;;;;;;0.37;0.30;;;29.70;73.60;;;;;;4431886;32;20077;-69
2022/06/05 11:36:08;;;;;;;0.17;0.17;;;30.00;74.00;;;;;;4439075;32;20106;-69
2022/06/05 11:39:14;;;;;;;0.82;0.15;;;30.20;73.70;;;;;;4442737;32;20068;-69
2022/06/05 11:42:16;;;;;;;0.30;0.20;;;30.40;71.60;;;;;;4436435;32;20069;-69
2022/06/05 11:44:54;;;;;;;0.65;0.30;;;30.70;71.10;;;;;;4439280;32;20082;-70
2022/06/05 11:47:41;;;;;;;12.55;1.10;;;31.10;68.90;;;;;;4431303;32;20076;-70
2022/06/05 11:50:31;;;;;;;0.28;0.28;;;31.10;68.30;;;;;;4428792;32;20077;-70
2022/06/05 11:53:03;;;;;;;0.20;0.20;;;31.00;70.10;;;;;;4432654;32;20092;-69
2022/06/05 11:55:37;;;;;;;0.08;0.08;;;31.30;68.70;;;;;;4431833;32;20073;-70
2022/06/05 11:58:24;;;;;;;0.22;0.20;;;31.80;69.00;;;;;;4420776;32;20541;-70
2022/06/05 12:00:58;;;;;;;0.32;0.30;;;31.90;67.90;;;;;;4420644;32;20604;-69
2022/06/05 12:03:39;;;;;;;0.15;0.15;;;32.20;66.60;;;;;;4442523;32;20512;-70
2022/06/05 12:06:29;;;;;;;0.25;0.25;;;32.50;66.20;;;;;;4443517;32;20074;-70
2022/06/05 12:08:56;;;;;;;;;;;32.80;66.40;;;;;;4441378;32;20073;-70
2022/06/05 12:11:27;;;;;;;0.22;0.22;;;32.70;63.10;;;;;;4441762;32;20016;-70
2022/06/05 12:14:31;;;;;;;0.30;0.30;;;32.60;62.10;;;;;;4442305;32;20056;-69
2022/06/05 12:17:17;;;;;;;0.22;0.22;;;32.70;61.70;;;;;;4440056;32;20119;-69
2022/06/05 12:20:09;;;;;;;0.85;0.62;;;32.70;60.30;;;;;;4437523;32;20062;-70
2022/06/05 12:22:46;;;;;;;0.45;0.32;;;33.20;61.00;;;;;;4436271;32;20154;-70
2022/06/05 12:25:18;;;;;;;0.55;0.30;;;33.20;61.70;;;;;;4437393;32;20056;-70
2022/06/05 12:28:07;;;;;;;0.32;0.30;;;33.40;61.10;;;;;;4431449;32;20122;-70
2022/06/05 12:30:38;;;;;;;0.30;0.30;;;33.60;59.90;;;;;;4417639;32;20064;-70
2022/06/05 12:33:25;;;;;;;0.10;0.10;;;34.00;57.30;;;;;;4434130;32;20057;-70
2022/06/05 12:35:55;;;;;;;0.30;0.30;;;34.10;57.40;;;;;;4440524;32;20077;-70
2022/06/05 12:38:36;;;;;;;3.03;0.28;;;33.80;57.80;;;;;;4438416;32;20544;-70
2022/06/05 12:41:15;;;;;;;0.35;0.35;;;33.90;57.30;;;;;;4445168;32;20116;-70
2022/06/05 12:43:49;;;;;;;0.30;0.30;;;34.00;57.60;;;;;;4440037;32;20064;-69
2022/06/05 12:46:35;;;;;;;0.30;0.30;;;34.10;57.60;;;;;;4442352;32;20194;-69
2022/06/05 12:49:28;;;;;;;1.02;0.62;;;33.70;57.40;;;;;;4436923;32;20073;-70
2022/06/05 12:52:19;;;;;;;0.50;0.37;;;33.40;59.30;;;;;;4442513;32;20113;-70
2022/06/05 12:54:51;;;;;;;0.30;0.30;;;33.60;58.60;;;;;;4437607;32;20093;-70
2022/06/05 12:57:39;;;;;;;0.40;0.40;;;34.40;57.70;;;;;;4438316;32;20097;-70
2022/06/05 13:00:16;;;;;;;6.55;0.50;;;34.80;56.80;;;;;;4418682;32;20050;-70
2022/06/05 13:03:05;;;;;;;4.53;0.55;;;34.70;57.10;;;;;;4433633;32;20058;-70
2022/06/05 13:05:41;;;;;;;0.40;0.35;;;34.50;57.30;;;;;;4431938;32;20113;-70
2022/06/05 13:08:13;;;;;;;0.90;0.55;;;34.80;56.70;;;;;;4432714;32;20509;-70
2022/06/05 13:10:44;;;;;;;0.25;0.25;;;34.90;55.10;;;;;;4441742;32;20430;-69
2022/06/05 13:13:19;;;;;;;0.30;0.30;;;35.30;54.90;;;;;;4436876;32;20453;-70
2022/06/05 13:15:54;;;;;;;0.20;0.20;;;35.60;55.70;;;;;;4438713;32;20402;-70
2022/06/05 13:18:34;;;;;;;1.37;0.73;;;36.20;53.40;;;;;;4443577;32;20053;-70
2022/06/05 13:21:31;;;;;;;0.65;0.25;;;35.60;53.90;;;;;;4435661;32;20078;-69